Sussex, Wyoming
Current Conditions -  °F | °C
As of 11:53 AM on Friday 28 Nov 2014 (Local Time) from KBYG Reporting Station
Clear Clear  
Wind Chill: 57°   Ceiling: Unl
Heat Index: 57°   Visibility: 10mi
Dew Point: 17°   Wind: 5mph
Humidity: 21%   Direction: 230°SW
Pressure: 29.65"   Gusts: NA
Location:  43.8063°N, 106.549°W
Report Text: KBYG 281853Z AUTO 23004KT 10SM CLR 14/M08 A2965 RMK AO2 SLP009 T01391083
Loading
Personal Weather Stations






























Interactive Weather Map New forecast layout! Learn more

10-Day Weather Forecast

Advertisements
Track Severe Weather on mobile